sensor_id;sensor_type;location;lat;lon;timestamp;temperature;humidity
8408;DHT22;4241;48.452;9.216;2022-08-19T00:00:22;18.60;99.90
8408;DHT22;4241;48.452;9.216;2022-08-19T00:02:49;18.60;99.90
8408;DHT22;4241;48.452;9.216;2022-08-19T00:05:17;18.70;99.90
8408;DHT22;4241;48.452;9.216;2022-08-19T00:07:45;18.70;99.90
8408;DHT22;4241;48.452;9.216;2022-08-19T00:10:14;18.70;99.90
8408;DHT22;4241;48.452;9.216;2022-08-19T00:12:42;18.70;99.90
8408;DHT22;4241;48.452;9.216;2022-08-19T00:15:12;18.80;99.90
8408;DHT22;4241;48.452;9.216;2022-08-19T00:17:40;18.50;99.90
8408;DHT22;4241;48.452;9.216;2022-08-19T00:20:09;18.50;99.90
8408;DHT22;4241;48.452;9.216;2022-08-19T00:22:37;18.40;99.90
8408;DHT22;4241;48.452;9.216;2022-08-19T00:25:06;18.30;99.90
8408;DHT22;4241;48.452;9.216;2022-08-19T00:27:33;18.40;99.90
8408;DHT22;4241;48.452;9.216;2022-08-19T00:30:00;18.50;99.90
8408;DHT22;4241;48.452;9.216;2022-08-19T00:32:28;18.40;99.90
8408;DHT22;4241;48.452;9.216;2022-08-19T00:34:55;18.40;99.90
8408;DHT22;4241;48.452;9.216;2022-08-19T00:37:23;18.40;99.90
8408;DHT22;4241;48.452;9.216;2022-08-19T00:39:52;18.50;99.90
8408;DHT22;4241;48.452;9.216;2022-08-19T00:42:21;18.50;99.90
8408;DHT22;4241;48.452;9.216;2022-08-19T00:44:48;18.50;99.90
8408;DHT22;4241;48.452;9.216;2022-08-19T00:47:16;18.50;99.90
8408;DHT22;4241;48.452;9.216;2022-08-19T00:49:45;18.60;99.90
8408;DHT22;4241;48.452;9.216;2022-08-19T00:52:19;18.60;99.90
8408;DHT22;4241;48.452;9.216;2022-08-19T00:54:48;18.60;99.90
8408;DHT22;4241;48.452;9.216;2022-08-19T00:57:17;18.60;99.90
8408;DHT22;4241;48.452;9.216;2022-08-19T00:59:50;18.60;99.90
8408;DHT22;4241;48.452;9.216;2022-08-19T01:02:18;18.50;99.90
8408;DHT22;4241;48.452;9.216;2022-08-19T01:04:45;18.40;99.90
8408;DHT22;4241;48.452;9.216;2022-08-19T01:07:12;18.50;99.90
8408;DHT22;4241;48.452;9.216;2022-08-19T01:09:39;18.40;99.90
8408;DHT22;4241;48.452;9.216;2022-08-19T01:12:07;18.40;99.90
8408;DHT22;4241;48.452;9.216;2022-08-19T01:14:34;18.50;99.90
8408;DHT22;4241;48.452;9.216;2022-08-19T01:17:03;18.50;99.90
8408;DHT22;4241;48.452;9.216;2022-08-19T01:19:34;18.50;99.90
8408;DHT22;4241;48.452;9.216;2022-08-19T01:22:05;18.30;99.90
8408;DHT22;4241;48.452;9.216;2022-08-19T01:24:34;18.40;99.90
8408;DHT22;4241;48.452;9.216;2022-08-19T01:27:04;18.00;99.90
8408;DHT22;4241;48.452;9.216;2022-08-19T01:29:31;18.30;99.90
8408;DHT22;4241;48.452;9.216;2022-08-19T01:31:58;18.30;99.90
8408;DHT22;4241;48.452;9.216;2022-08-19T01:34:25;18.20;99.90
8408;DHT22;4241;48.452;9.216;2022-08-19T01:36:52;18.40;99.90
8408;DHT22;4241;48.452;9.216;2022-08-19T01:39:21;18.40;99.90
8408;DHT22;4241;48.452;9.216;2022-08-19T01:41:51;18.30;99.90
8408;DHT22;4241;48.452;9.216;2022-08-19T01:44:20;18.40;99.90
8408;DHT22;4241;48.452;9.216;2022-08-19T01:46:51;18.30;99.90
8408;DHT22;4241;48.452;9.216;2022-08-19T01:49:20;18.80;99.90
8408;DHT22;4241;48.452;9.216;2022-08-19T01:51:48;18.30;99.90
8408;DHT22;4241;48.452;9.216;2022-08-19T01:54:17;18.30;99.90
8408;DHT22;4241;48.452;9.216;2022-08-19T01:56:45;18.30;99.90
8408;DHT22;4241;48.452;9.216;2022-08-19T01:59:17;18.10;99.90
8408;DHT22;4241;48.452;9.216;2022-08-19T02:01:44;18.20;99.90
8408;DHT22;4241;48.452;9.216;2022-08-19T02:04:11;18.20;99.90
8408;DHT22;4241;48.452;9.216;2022-08-19T02:06:38;18.20;99.90
8408;DHT22;4241;48.452;9.216;2022-08-19T02:09:06;18.10;99.90
8408;DHT22;4241;48.452;9.216;2022-08-19T02:11:35;18.20;99.90
8408;DHT22;4241;48.452;9.216;2022-08-19T02:14:05;18.10;99.90
8408;DHT22;4241;48.452;9.216;2022-08-19T02:16:33;18.20;99.90
8408;DHT22;4241;48.452;9.216;2022-08-19T02:19:01;18.20;99.90
8408;DHT22;4241;48.452;9.216;2022-08-19T02:21:29;18.10;99.90
8408;DHT22;4241;48.452;9.216;2022-08-19T02:23:56;18.00;99.90
8408;DHT22;4241;48.452;9.216;2022-08-19T02:26:23;18.00;99.90
8408;DHT22;4241;48.452;9.216;2022-08-19T02:28:51;18.00;99.90
8408;DHT22;4241;48.452;9.216;2022-08-19T02:31:20;17.90;99.90
8408;DHT22;4241;48.452;9.216;2022-08-19T02:33:48;18.00;99.90
8408;DHT22;4241;48.452;9.216;2022-08-19T02:36:16;17.90;99.90
8408;DHT22;4241;48.452;9.216;2022-08-19T02:38:43;17.90;99.90
8408;DHT22;4241;48.452;9.216;2022-08-19T02:41:12;17.90;99.90
8408;DHT22;4241;48.452;9.216;2022-08-19T02:43:39;17.90;99.90
8408;DHT22;4241;48.452;9.216;2022-08-19T02:46:15;18.00;99.90
8408;DHT22;4241;48.452;9.216;2022-08-19T02:48:48;18.00;99.90
8408;DHT22;4241;48.452;9.216;2022-08-19T02:51:19;18.00;99.90
8408;DHT22;4241;48.452;9.216;2022-08-19T02:53:47;18.00;99.90
8408;DHT22;4241;48.452;9.216;2022-08-19T02:56:14;18.00;99.90
8408;DHT22;4241;48.452;9.216;2022-08-19T02:58:41;17.90;99.90
8408;DHT22;4241;48.452;9.216;2022-08-19T03:01:09;17.90;99.90
8408;DHT22;4241;48.452;9.216;2022-08-19T03:03:36;18.00;99.90
8408;DHT22;4241;48.452;9.216;2022-08-19T03:06:07;18.00;99.90
8408;DHT22;4241;48.452;9.216;2022-08-19T03:08:34;18.00;99.90
8408;DHT22;4241;48.452;9.216;2022-08-19T03:11:01;18.00;99.90
8408;DHT22;4241;48.452;9.216;2022-08-19T03:13:28;18.00;99.90
8408;DHT22;4241;48.452;9.216;2022-08-19T03:15:55;18.00;99.90
8408;DHT22;4241;48.452;9.216;2022-08-19T03:18:22;17.90;99.90
8408;DHT22;4241;48.452;9.216;2022-08-19T03:20:50;18.10;99.90
8408;DHT22;4241;48.452;9.216;2022-08-19T03:23:19;17.80;99.90
8408;DHT22;4241;48.452;9.216;2022-08-19T03:25:48;17.80;99.90
8408;DHT22;4241;48.452;9.216;2022-08-19T03:28:16;17.80;99.90
8408;DHT22;4241;48.452;9.216;2022-08-19T03:30:55;17.70;99.90
8408;DHT22;4241;48.452;9.216;2022-08-19T03:33:24;17.70;99.90
8408;DHT22;4241;48.452;9.216;2022-08-19T03:36:06;17.70;99.90
8408;DHT22;4241;48.452;9.216;2022-08-19T03:38:36;17.80;99.90
8408;DHT22;4241;48.452;9.216;2022-08-19T03:41:04;17.80;99.90
8408;DHT22;4241;48.452;9.216;2022-08-19T03:43:34;17.70;99.90
8408;DHT22;4241;48.452;9.216;2022-08-19T03:46:02;17.70;99.90
8408;DHT22;4241;48.452;9.216;2022-08-19T03:48:30;17.70;99.90
8408;DHT22;4241;48.452;9.216;2022-08-19T03:50:57;17.70;99.90
8408;DHT22;4241;48.452;9.216;2022-08-19T03:53:25;17.70;99.90
8408;DHT22;4241;48.452;9.216;2022-08-19T03:55:54;17.70;99.90
8408;DHT22;4241;48.452;9.216;2022-08-19T03:58:22;17.70;99.90
8408;DHT22;4241;48.452;9.216;2022-08-19T04:00:49;17.40;99.90
8408;DHT22;4241;48.452;9.216;2022-08-19T04:03:17;17.80;99.90
8408;DHT22;4241;48.452;9.216;2022-08-19T04:05:45;17.90;99.90
8408;DHT22;4241;48.452;9.216;2022-08-19T04:08:13;17.80;99.90
8408;DHT22;4241;48.452;9.216;2022-08-19T04:10:40;17.80;99.90
8408;DHT22;4241;48.452;9.216;2022-08-19T04:13:09;17.80;99.90
8408;DHT22;4241;48.452;9.216;2022-08-19T04:15:39;17.70;99.90
8408;DHT22;4241;48.452;9.216;2022-08-19T04:18:07;17.80;99.90
8408;DHT22;4241;48.452;9.216;2022-08-19T04:20:40;17.80;99.90
8408;DHT22;4241;48.452;9.216;2022-08-19T04:23:07;17.90;99.90
8408;DHT22;4241;48.452;9.216;2022-08-19T04:25:38;17.80;99.90
8408;DHT22;4241;48.452;9.216;2022-08-19T04:28:05;17.80;99.90
8408;DHT22;4241;48.452;9.216;2022-08-19T04:30:39;17.70;99.90
8408;DHT22;4241;48.452;9.216;2022-08-19T04:33:06;17.80;99.90
8408;DHT22;4241;48.452;9.216;2022-08-19T04:35:38;17.80;99.90
8408;DHT22;4241;48.452;9.216;2022-08-19T04:38:05;17.90;99.90
8408;DHT22;4241;48.452;9.216;2022-08-19T04:40:32;17.90;99.90
8408;DHT22;4241;48.452;9.216;2022-08-19T04:43:16;17.90;99.90
8408;DHT22;4241;48.452;9.216;2022-08-19T04:45:45;17.90;99.90
8408;DHT22;4241;48.452;9.216;2022-08-19T04:48:13;17.90;99.90
8408;DHT22;4241;48.452;9.216;2022-08-19T04:50:41;17.70;99.90
8408;DHT22;4241;48.452;9.216;2022-08-19T04:53:08;17.90;99.90
8408;DHT22;4241;48.452;9.216;2022-08-19T04:55:39;17.90;99.90
8408;DHT22;4241;48.452;9.216;2022-08-19T04:58:06;18.00;99.90
8408;DHT22;4241;48.452;9.216;2022-08-19T05:00:33;17.90;99.90
8408;DHT22;4241;48.452;9.216;2022-08-19T05:03:01;17.80;99.90
8408;DHT22;4241;48.452;9.216;2022-08-19T05:05:28;17.90;99.90
8408;DHT22;4241;48.452;9.216;2022-08-19T05:07:57;17.90;99.90
8408;DHT22;4241;48.452;9.216;2022-08-19T05:10:24;17.90;99.90
8408;DHT22;4241;48.452;9.216;2022-08-19T05:12:50;17.90;99.90
8408;DHT22;4241;48.452;9.216;2022-08-19T05:15:17;17.90;99.90
8408;DHT22;4241;48.452;9.216;2022-08-19T05:17:44;17.90;99.90
8408;DHT22;4241;48.452;9.216;2022-08-19T05:20:32;18.10;99.90
8408;DHT22;4241;48.452;9.216;2022-08-19T05:23:17;17.90;99.90
8408;DHT22;4241;48.452;9.216;2022-08-19T05:25:44;17.90;99.90
8408;DHT22;4241;48.452;9.216;2022-08-19T05:28:10;17.90;99.90
8408;DHT22;4241;48.452;9.216;2022-08-19T05:30:37;17.90;99.90
8408;DHT22;4241;48.452;9.216;2022-08-19T05:33:06;17.90;99.90
8408;DHT22;4241;48.452;9.216;2022-08-19T05:35:37;17.80;99.90
8408;DHT22;4241;48.452;9.216;2022-08-19T05:38:04;17.90;99.90
8408;DHT22;4241;48.452;9.216;2022-08-19T05:40:33;18.00;99.90
8408;DHT22;4241;48.452;9.216;2022-08-19T05:43:01;17.90;99.90
8408;DHT22;4241;48.452;9.216;2022-08-19T05:45:28;17.90;99.90
8408;DHT22;4241;48.452;9.216;2022-08-19T05:47:55;18.00;99.90
8408;DHT22;4241;48.452;9.216;2022-08-19T05:50:22;18.00;99.90
8408;DHT22;4241;48.452;9.216;2022-08-19T05:52:52;18.00;99.90
8408;DHT22;4241;48.452;9.216;2022-08-19T05:55:19;18.00;99.90
8408;DHT22;4241;48.452;9.216;2022-08-19T05:57:48;17.80;99.90
8408;DHT22;4241;48.452;9.216;2022-08-19T06:00:15;17.90;99.90
8408;DHT22;4241;48.452;9.216;2022-08-19T06:02:42;18.00;99.90
8408;DHT22;4241;48.452;9.216;2022-08-19T06:05:10;18.00;99.90
8408;DHT22;4241;48.452;9.216;2022-08-19T06:07:37;18.00;99.90
8408;DHT22;4241;48.452;9.216;2022-08-19T06:10:08;18.10;99.90
8408;DHT22;4241;48.452;9.216;2022-08-19T06:12:35;18.00;99.90
8408;DHT22;4241;48.452;9.216;2022-08-19T06:15:05;18.00;99.90
8408;DHT22;4241;48.452;9.216;2022-08-19T06:17:33;17.90;99.90
8408;DHT22;4241;48.452;9.216;2022-08-19T06:20:00;18.00;99.90
8408;DHT22;4241;48.452;9.216;2022-08-19T06:22:28;17.90;99.90
8408;DHT22;4241;48.452;9.216;2022-08-19T06:24:55;17.90;99.90
8408;DHT22;4241;48.452;9.216;2022-08-19T06:27:23;18.10;99.90
8408;DHT22;4241;48.452;9.216;2022-08-19T06:29:50;17.90;99.90
8408;DHT22;4241;48.452;9.216;2022-08-19T06:32:18;18.00;99.90
8408;DHT22;4241;48.452;9.216;2022-08-19T06:34:45;18.00;99.90
8408;DHT22;4241;48.452;9.216;2022-08-19T06:37:12;18.20;99.90
8408;DHT22;4241;48.452;9.216;2022-08-19T06:39:41;18.00;99.90
8408;DHT22;4241;48.452;9.216;2022-08-19T06:42:09;18.10;99.90
8408;DHT22;4241;48.452;9.216;2022-08-19T06:44:41;18.00;99.90
8408;DHT22;4241;48.452;9.216;2022-08-19T06:47:11;18.10;99.90
8408;DHT22;4241;48.452;9.216;2022-08-19T06:49:39;18.00;99.90
8408;DHT22;4241;48.452;9.216;2022-08-19T06:52:05;18.10;99.90
8408;DHT22;4241;48.452;9.216;2022-08-19T06:54:32;18.00;99.90
8408;DHT22;4241;48.452;9.216;2022-08-19T06:57:00;17.90;99.90
8408;DHT22;4241;48.452;9.216;2022-08-19T06:59:30;18.20;99.90
8408;DHT22;4241;48.452;9.216;2022-08-19T07:02:01;18.00;99.90
8408;DHT22;4241;48.452;9.216;2022-08-19T07:04:31;18.10;99.90
8408;DHT22;4241;48.452;9.216;2022-08-19T07:07:00;18.10;99.90
8408;DHT22;4241;48.452;9.216;2022-08-19T07:09:27;18.00;99.90
8408;DHT22;4241;48.452;9.216;2022-08-19T07:11:55;17.90;99.90
8408;DHT22;4241;48.452;9.216;2022-08-19T07:14:24;17.60;99.90
8408;DHT22;4241;48.452;9.216;2022-08-19T07:16:53;18.00;99.90
8408;DHT22;4241;48.452;9.216;2022-08-19T07:19:22;18.00;99.90
8408;DHT22;4241;48.452;9.216;2022-08-19T07:21:50;18.10;99.90
8408;DHT22;4241;48.452;9.216;2022-08-19T07:24:18;17.60;99.90
8408;DHT22;4241;48.452;9.216;2022-08-19T07:26:46;18.00;99.90
8408;DHT22;4241;48.452;9.216;2022-08-19T07:29:13;17.90;99.90
8408;DHT22;4241;48.452;9.216;2022-08-19T07:31:40;17.90;99.90
8408;DHT22;4241;48.452;9.216;2022-08-19T07:34:09;18.00;99.90
8408;DHT22;4241;48.452;9.216;2022-08-19T07:36:39;18.00;99.90
8408;DHT22;4241;48.452;9.216;2022-08-19T07:39:09;18.50;99.90
8408;DHT22;4241;48.452;9.216;2022-08-19T07:41:37;18.10;99.90
8408;DHT22;4241;48.452;9.216;2022-08-19T07:44:07;18.10;99.90
8408;DHT22;4241;48.452;9.216;2022-08-19T07:46:36;18.10;99.90
8408;DHT22;4241;48.452;9.216;2022-08-19T07:49:05;18.10;99.90
8408;DHT22;4241;48.452;9.216;2022-08-19T07:51:32;18.20;99.90
8408;DHT22;4241;48.452;9.216;2022-08-19T07:54:01;18.10;99.90
8408;DHT22;4241;48.452;9.216;2022-08-19T07:56:27;18.10;99.90
8408;DHT22;4241;48.452;9.216;2022-08-19T07:58:54;18.00;99.90
8408;DHT22;4241;48.452;9.216;2022-08-19T08:01:24;18.00;99.90
8408;DHT22;4241;48.452;9.216;2022-08-19T08:03:53;18.00;99.90
8408;DHT22;4241;48.452;9.216;2022-08-19T08:06:37;18.10;99.90
8408;DHT22;4241;48.452;9.216;2022-08-19T08:09:26;18.00;99.90
8408;DHT22;4241;48.452;9.216;2022-08-19T08:11:56;18.10;99.90
8408;DHT22;4241;48.452;9.216;2022-08-19T08:14:29;18.20;99.90
8408;DHT22;4241;48.452;9.216;2022-08-19T08:16:57;18.10;99.90
8408;DHT22;4241;48.452;9.216;2022-08-19T08:19:26;18.00;99.90
8408;DHT22;4241;48.452;9.216;2022-08-19T08:21:58;18.10;99.90
8408;DHT22;4241;48.452;9.216;2022-08-19T08:24:29;17.90;99.90
8408;DHT22;4241;48.452;9.216;2022-08-19T08:26:58;17.90;99.90
8408;DHT22;4241;48.452;9.216;2022-08-19T08:29:28;17.80;99.90
8408;DHT22;4241;48.452;9.216;2022-08-19T08:31:55;17.80;99.90
8408;DHT22;4241;48.452;9.216;2022-08-19T08:34:22;17.80;99.90
8408;DHT22;4241;48.452;9.216;2022-08-19T08:36:49;17.90;99.90
8408;DHT22;4241;48.452;9.216;2022-08-19T08:39:19;17.90;99.90
8408;DHT22;4241;48.452;9.216;2022-08-19T08:41:53;18.00;99.90
8408;DHT22;4241;48.452;9.216;2022-08-19T08:44:31;18.10;99.90
8408;DHT22;4241;48.452;9.216;2022-08-19T08:47:04;18.00;99.90
8408;DHT22;4241;48.452;9.216;2022-08-19T08:49:43;17.90;99.90
8408;DHT22;4241;48.452;9.216;2022-08-19T08:52:17;18.00;99.90
8408;DHT22;4241;48.452;9.216;2022-08-19T08:54:47;17.90;99.90
8408;DHT22;4241;48.452;9.216;2022-08-19T08:57:35;17.90;99.90
8408;DHT22;4241;48.452;9.216;2022-08-19T09:00:06;17.80;99.90
8408;DHT22;4241;48.452;9.216;2022-08-19T09:02:33;17.90;99.90
8408;DHT22;4241;48.452;9.216;2022-08-19T09:05:00;17.90;99.90
8408;DHT22;4241;48.452;9.216;2022-08-19T09:07:37;18.00;99.90
8408;DHT22;4241;48.452;9.216;2022-08-19T09:10:18;18.00;99.90
8408;DHT22;4241;48.452;9.216;2022-08-19T09:12:57;18.00;99.90
8408;DHT22;4241;48.452;9.216;2022-08-19T09:15:32;17.90;99.90
8408;DHT22;4241;48.452;9.216;2022-08-19T09:18:00;18.00;99.90
8408;DHT22;4241;48.452;9.216;2022-08-19T09:20:29;17.90;99.90
8408;DHT22;4241;48.452;9.216;2022-08-19T09:22:56;18.00;99.90
8408;DHT22;4241;48.452;9.216;2022-08-19T09:25:24;17.80;99.90
8408;DHT22;4241;48.452;9.216;2022-08-19T09:27:54;17.80;99.90
8408;DHT22;4241;48.452;9.216;2022-08-19T09:30:23;17.90;99.90
8408;DHT22;4241;48.452;9.216;2022-08-19T09:32:51;17.90;99.90
8408;DHT22;4241;48.452;9.216;2022-08-19T09:35:21;17.90;99.90
8408;DHT22;4241;48.452;9.216;2022-08-19T09:37:49;17.80;99.90
8408;DHT22;4241;48.452;9.216;2022-08-19T09:40:16;17.90;99.90
8408;DHT22;4241;48.452;9.216;2022-08-19T09:42:43;17.90;99.90
8408;DHT22;4241;48.452;9.216;2022-08-19T09:45:13;18.00;99.90
8408;DHT22;4241;48.452;9.216;2022-08-19T09:47:40;17.90;99.90
8408;DHT22;4241;48.452;9.216;2022-08-19T09:50:09;18.00;99.90
8408;DHT22;4241;48.452;9.216;2022-08-19T09:52:36;17.40;99.90
8408;DHT22;4241;48.452;9.216;2022-08-19T09:55:04;18.10;99.90
8408;DHT22;4241;48.452;9.216;2022-08-19T09:57:31;18.10;99.90
8408;DHT22;4241;48.452;9.216;2022-08-19T09:59:57;18.10;99.90
8408;DHT22;4241;48.452;9.216;2022-08-19T10:02:26;17.90;99.90
8408;DHT22;4241;48.452;9.216;2022-08-19T10:04:53;18.00;99.90
8408;DHT22;4241;48.452;9.216;2022-08-19T10:07:37;18.10;99.90
8408;DHT22;4241;48.452;9.216;2022-08-19T10:10:05;18.10;99.90
8408;DHT22;4241;48.452;9.216;2022-08-19T10:12:32;18.10;99.90
8408;DHT22;4241;48.452;9.216;2022-08-19T10:14:59;18.10;99.90
8408;DHT22;4241;48.452;9.216;2022-08-19T10:17:28;18.00;99.90
8408;DHT22;4241;48.452;9.216;2022-08-19T10:19:55;18.10;99.90
8408;DHT22;4241;48.452;9.216;2022-08-19T10:22:22;18.10;99.90
8408;DHT22;4241;48.452;9.216;2022-08-19T10:24:49;18.10;99.90
8408;DHT22;4241;48.452;9.216;2022-08-19T10:27:17;18.00;99.90
8408;DHT22;4241;48.452;9.216;2022-08-19T10:29:44;18.00;99.90
8408;DHT22;4241;48.452;9.216;2022-08-19T10:32:12;18.10;99.90
8408;DHT22;4241;48.452;9.216;2022-08-19T10:34:41;18.10;99.90
8408;DHT22;4241;48.452;9.216;2022-08-19T10:37:07;18.20;99.90
8408;DHT22;4241;48.452;9.216;2022-08-19T10:39:35;18.00;99.90
8408;DHT22;4241;48.452;9.216;2022-08-19T10:42:05;18.00;99.90
8408;DHT22;4241;48.452;9.216;2022-08-19T10:44:33;19.40;99.90
8408;DHT22;4241;48.452;9.216;2022-08-19T10:47:02;18.10;99.90
8408;DHT22;4241;48.452;9.216;2022-08-19T10:49:29;18.10;99.90
8408;DHT22;4241;48.452;9.216;2022-08-19T10:51:59;18.10;99.90
8408;DHT22;4241;48.452;9.216;2022-08-19T10:54:42;18.10;99.90
8408;DHT22;4241;48.452;9.216;2022-08-19T10:57:30;17.60;99.90
8408;DHT22;4241;48.452;9.216;2022-08-19T10:59:57;17.70;99.90
8408;DHT22;4241;48.452;9.216;2022-08-19T11:02:24;17.70;99.90
8408;DHT22;4241;48.452;9.216;2022-08-19T11:04:51;17.80;99.90
8408;DHT22;4241;48.452;9.216;2022-08-19T11:07:19;17.80;99.90
8408;DHT22;4241;48.452;9.216;2022-08-19T11:09:46;17.90;99.90
8408;DHT22;4241;48.452;9.216;2022-08-19T11:12:13;17.90;99.90
8408;DHT22;4241;48.452;9.216;2022-08-19T11:14:41;17.90;99.90
8408;DHT22;4241;48.452;9.216;2022-08-19T11:17:07;17.80;99.90
8408;DHT22;4241;48.452;9.216;2022-08-19T11:19:36;17.90;99.90
8408;DHT22;4241;48.452;9.216;2022-08-19T11:22:03;17.90;99.90
8408;DHT22;4241;48.452;9.216;2022-08-19T11:24:31;17.90;99.90
8408;DHT22;4241;48.452;9.216;2022-08-19T11:27:04;18.00;99.90
8408;DHT22;4241;48.452;9.216;2022-08-19T11:29:32;18.10;99.90
8408;DHT22;4241;48.452;9.216;2022-08-19T11:32:03;18.00;99.90
8408;DHT22;4241;48.452;9.216;2022-08-19T11:34:30;18.00;99.90
8408;DHT22;4241;48.452;9.216;2022-08-19T11:36:57;17.90;99.90
8408;DHT22;4241;48.452;9.216;2022-08-19T11:39:27;17.90;99.90
8408;DHT22;4241;48.452;9.216;2022-08-19T11:41:55;18.10;99.90
8408;DHT22;4241;48.452;9.216;2022-08-19T11:44:24;18.00;99.90
8408;DHT22;4241;48.452;9.216;2022-08-19T11:46:51;18.00;99.90
8408;DHT22;4241;48.452;9.216;2022-08-19T11:49:19;17.90;99.90
8408;DHT22;4241;48.452;9.216;2022-08-19T11:51:47;18.00;99.90
8408;DHT22;4241;48.452;9.216;2022-08-19T11:54:16;18.10;99.90
8408;DHT22;4241;48.452;9.216;2022-08-19T11:56:44;18.10;99.90
8408;DHT22;4241;48.452;9.216;2022-08-19T11:59:14;18.10;99.90
8408;DHT22;4241;48.452;9.216;2022-08-19T12:01:41;18.10;99.90
8408;DHT22;4241;48.452;9.216;2022-08-19T12:04:09;18.10;99.90
8408;DHT22;4241;48.452;9.216;2022-08-19T12:06:38;18.20;99.90
8408;DHT22;4241;48.452;9.216;2022-08-19T12:09:06;18.10;99.90
8408;DHT22;4241;48.452;9.216;2022-08-19T12:11:33;18.20;99.90
8408;DHT22;4241;48.452;9.216;2022-08-19T12:14:02;18.20;99.90
8408;DHT22;4241;48.452;9.216;2022-08-19T12:16:30;18.30;99.90
8408;DHT22;4241;48.452;9.216;2022-08-19T12:18:58;18.30;99.90
8408;DHT22;4241;48.452;9.216;2022-08-19T12:21:31;18.00;99.90
8408;DHT22;4241;48.452;9.216;2022-08-19T12:24:00;18.10;99.90
8408;DHT22;4241;48.452;9.216;2022-08-19T12:26:28;18.20;99.90
8408;DHT22;4241;48.452;9.216;2022-08-19T12:28:57;18.20;99.90
8408;DHT22;4241;48.452;9.216;2022-08-19T12:31:24;18.20;99.90
8408;DHT22;4241;48.452;9.216;2022-08-19T12:33:53;18.20;99.90
8408;DHT22;4241;48.452;9.216;2022-08-19T12:36:20;18.30;99.90
8408;DHT22;4241;48.452;9.216;2022-08-19T12:38:47;18.30;99.90
8408;DHT22;4241;48.452;9.216;2022-08-19T12:41:16;18.30;99.90
8408;DHT22;4241;48.452;9.216;2022-08-19T12:43:44;18.40;99.90
8408;DHT22;4241;48.452;9.216;2022-08-19T12:46:11;18.40;99.90
8408;DHT22;4241;48.452;9.216;2022-08-19T12:48:39;18.30;99.90
8408;DHT22;4241;48.452;9.216;2022-08-19T12:51:11;18.50;99.90
8408;DHT22;4241;48.452;9.216;2022-08-19T12:53:38;18.50;99.90
8408;DHT22;4241;48.452;9.216;2022-08-19T12:56:06;18.50;99.90
8408;DHT22;4241;48.452;9.216;2022-08-19T12:58:33;18.10;99.90
8408;DHT22;4241;48.452;9.216;2022-08-19T13:01:06;18.50;99.90
8408;DHT22;4241;48.452;9.216;2022-08-19T13:03:33;18.50;99.90
8408;DHT22;4241;48.452;9.216;2022-08-19T13:06:00;18.50;99.90
8408;DHT22;4241;48.452;9.216;2022-08-19T13:08:28;18.40;99.90
8408;DHT22;4241;48.452;9.216;2022-08-19T13:10:55;18.50;99.90
8408;DHT22;4241;48.452;9.216;2022-08-19T13:13:24;18.50;99.90
8408;DHT22;4241;48.452;9.216;2022-08-19T13:15:51;18.60;99.90
8408;DHT22;4241;48.452;9.216;2022-08-19T13:18:18;18.70;99.90
8408;DHT22;4241;48.452;9.216;2022-08-19T13:20:45;18.70;99.90
8408;DHT22;4241;48.452;9.216;2022-08-19T13:23:12;18.80;99.90
8408;DHT22;4241;48.452;9.216;2022-08-19T13:25:40;18.80;99.90
8408;DHT22;4241;48.452;9.216;2022-08-19T13:28:07;18.80;99.90
8408;DHT22;4241;48.452;9.216;2022-08-19T13:30:34;18.80;99.90
8408;DHT22;4241;48.452;9.216;2022-08-19T13:33:18;18.50;99.90
8408;DHT22;4241;48.452;9.216;2022-08-19T13:35:48;18.70;99.90
8408;DHT22;4241;48.452;9.216;2022-08-19T13:38:17;18.60;99.90
8408;DHT22;4241;48.452;9.216;2022-08-19T13:40:45;18.50;99.90
8408;DHT22;4241;48.452;9.216;2022-08-19T13:43:13;18.60;99.90
8408;DHT22;4241;48.452;9.216;2022-08-19T13:45:40;18.40;99.90
8408;DHT22;4241;48.452;9.216;2022-08-19T13:48:07;18.60;99.90
8408;DHT22;4241;48.452;9.216;2022-08-19T13:50:38;18.60;99.90
8408;DHT22;4241;48.452;9.216;2022-08-19T13:53:06;18.60;99.90
8408;DHT22;4241;48.452;9.216;2022-08-19T13:55:33;18.70;99.90
8408;DHT22;4241;48.452;9.216;2022-08-19T13:58:02;18.60;99.90
8408;DHT22;4241;48.452;9.216;2022-08-19T14:00:33;18.40;99.90
8408;DHT22;4241;48.452;9.216;2022-08-19T14:03:00;18.60;99.90
8408;DHT22;4241;48.452;9.216;2022-08-19T14:05:28;18.70;99.90
8408;DHT22;4241;48.452;9.216;2022-08-19T14:07:55;18.60;99.90
8408;DHT22;4241;48.452;9.216;2022-08-19T14:10:23;18.60;99.90
8408;DHT22;4241;48.452;9.216;2022-08-19T14:12:53;18.60;99.90
8408;DHT22;4241;48.452;9.216;2022-08-19T14:15:22;18.50;99.90
8408;DHT22;4241;48.452;9.216;2022-08-19T14:17:49;18.60;99.90
8408;DHT22;4241;48.452;9.216;2022-08-19T14:20:17;18.60;99.90
8408;DHT22;4241;48.452;9.216;2022-08-19T14:22:45;18.60;99.90
8408;DHT22;4241;48.452;9.216;2022-08-19T14:25:15;18.60;99.90
8408;DHT22;4241;48.452;9.216;2022-08-19T14:27:42;18.60;99.90
8408;DHT22;4241;48.452;9.216;2022-08-19T14:30:12;18.70;99.90
8408;DHT22;4241;48.452;9.216;2022-08-19T14:32:41;18.50;99.90
8408;DHT22;4241;48.452;9.216;2022-08-19T14:35:09;18.50;99.90
8408;DHT22;4241;48.452;9.216;2022-08-19T14:37:38;18.50;99.90
8408;DHT22;4241;48.452;9.216;2022-08-19T14:40:06;18.30;99.90
8408;DHT22;4241;48.452;9.216;2022-08-19T14:42:34;18.40;99.90
8408;DHT22;4241;48.452;9.216;2022-08-19T14:45:01;18.50;99.90
8408;DHT22;4241;48.452;9.216;2022-08-19T14:47:30;18.40;99.90
8408;DHT22;4241;48.452;9.216;2022-08-19T14:49:59;18.30;99.90
8408;DHT22;4241;48.452;9.216;2022-08-19T14:52:26;18.50;99.90
8408;DHT22;4241;48.452;9.216;2022-08-19T14:54:53;18.40;99.90
8408;DHT22;4241;48.452;9.216;2022-08-19T14:57:20;18.50;99.90
8408;DHT22;4241;48.452;9.216;2022-08-19T14:59:47;18.50;99.90
8408;DHT22;4241;48.452;9.216;2022-08-19T15:02:13;18.40;99.90
8408;DHT22;4241;48.452;9.216;2022-08-19T15:04:40;18.40;99.90
8408;DHT22;4241;48.452;9.216;2022-08-19T15:07:09;18.20;99.90
8408;DHT22;4241;48.452;9.216;2022-08-19T15:09:36;18.30;99.90
8408;DHT22;4241;48.452;9.216;2022-08-19T15:12:03;18.30;99.90
8408;DHT22;4241;48.452;9.216;2022-08-19T15:14:31;18.30;99.90
8408;DHT22;4241;48.452;9.216;2022-08-19T15:17:01;18.20;99.90
8408;DHT22;4241;48.452;9.216;2022-08-19T15:19:28;18.00;99.90
8408;DHT22;4241;48.452;9.216;2022-08-19T15:21:55;18.20;99.90
8408;DHT22;4241;48.452;9.216;2022-08-19T15:24:24;18.30;99.90
8408;DHT22;4241;48.452;9.216;2022-08-19T15:26:51;18.40;99.90
8408;DHT22;4241;48.452;9.216;2022-08-19T15:29:19;18.50;99.90
8408;DHT22;4241;48.452;9.216;2022-08-19T15:31:46;18.40;99.90
8408;DHT22;4241;48.452;9.216;2022-08-19T15:34:13;18.40;99.90
8408;DHT22;4241;48.452;9.216;2022-08-19T15:36:40;18.40;99.90
8408;DHT22;4241;48.452;9.216;2022-08-19T15:39:06;18.50;99.90
8408;DHT22;4241;48.452;9.216;2022-08-19T15:41:36;18.60;99.90
8408;DHT22;4241;48.452;9.216;2022-08-19T15:44:04;18.70;99.90
8408;DHT22;4241;48.452;9.216;2022-08-19T15:46:36;18.80;99.90
8408;DHT22;4241;48.452;9.216;2022-08-19T15:49:04;18.90;99.90
8408;DHT22;4241;48.452;9.216;2022-08-19T15:51:33;19.00;99.90
8408;DHT22;4241;48.452;9.216;2022-08-19T15:54:02;19.00;99.90
8408;DHT22;4241;48.452;9.216;2022-08-19T15:56:29;18.90;99.90
8408;DHT22;4241;48.452;9.216;2022-08-19T15:59:11;19.00;99.90
8408;DHT22;4241;48.452;9.216;2022-08-19T16:01:55;19.10;99.90
8408;DHT22;4241;48.452;9.216;2022-08-19T16:04:39;19.10;99.90
8408;DHT22;4241;48.452;9.216;2022-08-19T16:07:24;19.00;99.90
8408;DHT22;4241;48.452;9.216;2022-08-19T16:09:51;18.90;99.90
8408;DHT22;4241;48.452;9.216;2022-08-19T16:12:17;18.90;99.90